Time;durP1;ratioP1;P1;durP2;ratioP2;P2;SDS_P1;SDS_P2;PMS_P1;PMS_P2;Temp;Humidity;BMP_temperature;BMP_pressure;BME280_temperature;BME280_humidity;BME280_pressure;Samples;Min_cycle;Max_cycle;Signal;HPM_P1;HPM_P2
2023/07/06 00:01:39;;;;;;;;;;;;;;;15.22;57.92;100418.53;5075448;28;1132;-45
2023/07/06 00:04:04;;;;;;;;;;;;;;;15.17;58.34;100413.91;5076238;28;1149;-48
2023/07/06 00:06:32;;;;;;;;;;;;;;;15.17;58.09;100404.88;5075763;28;1190;-46
2023/07/06 00:08:58;;;;;;;;;;;;;;;15.11;58.16;100411.41;5075922;28;1170;-45
2023/07/06 00:11:23;;;;;;;;;;;;;;;15.43;58.74;100400.22;5075560;28;1147;-48
2023/07/06 00:13:49;;;;;;;;;;;;;;;16.79;59.36;100403.09;5076357;28;1882;-44
2023/07/06 00:16:15;;;;;;;;;;;;;;;16.21;60.25;100406.38;5075472;28;1054;-48
2023/07/06 00:18:41;;;;;;;;;;;;;;;15.88;60.29;100397.72;5075803;28;1024;-48
2023/07/06 00:21:08;;;;;;;;;;;;;;;15.70;59.62;100402.63;5075930;28;1228;-49
2023/07/06 00:23:33;;;;;;;;;;;;;;;15.69;59.32;100403.72;5075606;28;1170;-49
2023/07/06 00:25:59;;;;;;;;;;;;;;;15.56;59.07;100402.38;5075582;28;1125;-46
2023/07/06 00:28:25;;;;;;;;;;;;;;;15.56;58.93;100401.56;5075624;28;1153;-50
2023/07/06 00:31:01;;;;;;;;;;;;;;;15.51;58.76;100394.16;5075923;28;1138;-48
2023/07/06 00:33:28;;;;;;;;;;;;;;;15.43;58.62;100402.97;5076075;28;1985;-49
2023/07/06 00:35:53;;;;;;;;;;;;;;;15.42;58.80;100397.72;5075636;28;1146;-47
2023/07/06 00:38:21;;;;;;;;;;;;;;;15.38;58.68;100392.81;5075806;28;1082;-44
2023/07/06 00:40:51;;;;;;;;;;;;;;;15.34;58.30;100391.69;5057953;28;1122;-46
2023/07/06 00:43:18;;;;;;;;;;;;;;;15.31;58.48;100400.47;5066536;28;1511;-48
2023/07/06 00:45:44;;;;;;;;;;;;;;;15.34;58.13;100399.91;5053936;28;969;-45
2023/07/06 00:48:17;;;;;;;;;;;;;;;15.25;58.48;100396.09;5048801;28;1155;-45
2023/07/06 00:50:43;;;;;;;;;;;;;;;15.27;58.23;100390.34;5046721;28;1510;-49
2023/07/06 00:53:11;;;;;;;;;;;;;;;15.25;58.09;100390.63;5060979;28;1898;-45
2023/07/06 00:55:40;;;;;;;;;;;;;;;15.21;58.07;100400.50;5079156;28;1230;-47
2023/07/06 00:58:15;;;;;;;;;;;;;;;15.25;58.17;100392.53;5073057;28;1159;-47
2023/07/06 01:00:44;;;;;;;;;;;;;;;15.20;58.06;100398.84;5060574;28;979;-45
2023/07/06 01:03:09;;;;;;;;;;;;;;;15.13;58.23;100379.13;5061492;28;1143;-48
2023/07/06 01:05:38;;;;;;;;;;;;;;;15.14;58.12;100395.28;5061093;28;1091;-46
2023/07/06 01:08:06;;;;;;;;;;;;;;;15.14;58.23;100391.72;5078865;28;1039;-45
2023/07/06 01:10:33;;;;;;;;;;;;;;;16.42;59.13;100394.22;5055894;28;945;-48
2023/07/06 01:13:00;;;;;;;;;;;;;;;16.39;59.95;100399.44;5078615;28;1907;-44
2023/07/06 01:15:27;;;;;;;;;;;;;;;15.84;60.51;100396.63;5078761;28;1055;-45
2023/07/06 01:18:16;;;;;;;;;;;;;;;15.71;59.99;100398.81;5060642;28;1102;-50
2023/07/06 01:20:47;;;;;;;;;;;;;;;15.61;59.43;100403.47;5065178;28;1366;-51
2023/07/06 01:23:12;;;;;;;;;;;;;;;15.49;59.34;100401.03;5060580;28;1378;-44
2023/07/06 01:25:53;;;;;;;;;;;;;;;15.44;58.81;100398.28;5060628;28;1183;-43
2023/07/06 01:28:18;;;;;;;;;;;;;;;15.41;58.98;100391.44;5066229;28;1094;-47
2023/07/06 01:30:47;;;;;;;;;;;;;;;15.45;58.72;100402.69;5060316;28;1290;-47
2023/07/06 01:33:19;;;;;;;;;;;;;;;15.40;58.36;100395.25;5060486;28;1898;-46
2023/07/06 01:35:47;;;;;;;;;;;;;;;15.37;58.31;100404.84;5057945;28;1046;-47
2023/07/06 01:38:13;;;;;;;;;;;;;;;15.36;58.14;100400.47;5041765;28;1298;-50
2023/07/06 01:40:40;;;;;;;;;;;;;;;15.32;58.40;100404.03;5023750;28;1241;-49
2023/07/06 01:43:06;;;;;;;;;;;;;;;15.31;58.10;100413.38;5058981;28;1367;-46
2023/07/06 01:45:32;;;;;;;;;;;;;;;15.23;58.39;100409.25;5040536;28;1562;-50
2023/07/06 01:47:59;;;;;;;;;;;;;;;15.23;58.35;100420.19;5042611;28;1349;-50
2023/07/06 01:50:31;;;;;;;;;;;;;;;15.23;58.32;100418.28;5040386;28;1379;-50
2023/07/06 01:52:59;;;;;;;;;;;;;;;15.15;58.03;100418.00;5035984;28;1959;-49
2023/07/06 01:55:26;;;;;;;;;;;;;;;15.18;58.08;100422.91;5053893;28;1213;-46
2023/07/06 01:57:52;;;;;;;;;;;;;;;15.17;58.22;100421.31;5054451;28;1095;-46
2023/07/06 02:00:19;;;;;;;;;;;;;;;15.12;58.25;100404.84;5059390;28;1541;-46
2023/07/06 02:02:47;;;;;;;;;;;;;;;15.15;57.88;100418.00;5055139;28;1252;-50
2023/07/06 02:05:13;;;;;;;;;;;;;;;15.07;58.27;100416.63;5060654;28;1248;-49
2023/07/06 02:07:40;;;;;;;;;;;;;;;15.05;58.06;100413.31;5059767;28;1150;-46
2023/07/06 02:10:06;;;;;;;;;;;;;;;15.90;59.00;100398.25;5059515;28;1086;-47
2023/07/06 02:12:31;;;;;;;;;;;;;;;16.63;59.36;100412.50;5059324;28;1906;-48
2023/07/06 02:14:58;;;;;;;;;;;;;;;15.95;60.14;100402.88;5076880;28;986;-48
2023/07/06 02:17:23;;;;;;;;;;;;;;;15.71;59.93;100408.94;5077851;28;1111;-47
2023/07/06 02:19:50;;;;;;;;;;;;;;;15.60;59.64;100410.03;5077130;28;1214;-49
2023/07/06 02:22:17;;;;;;;;;;;;;;;15.55;59.29;100410.88;5077478;28;1051;-44
2023/07/06 02:24:44;;;;;;;;;;;;;;;15.42;59.05;100404.03;5059100;28;1145;-45
2023/07/06 02:27:10;;;;;;;;;;;;;;;15.47;58.71;100404.03;5077624;28;1043;-50
2023/07/06 02:29:36;;;;;;;;;;;;;;;15.36;58.57;100414.19;5077052;28;1067;-47
2023/07/06 02:32:02;;;;;;;;;;;;;;;15.30;58.52;100401.56;5077445;28;1174;-47
2023/07/06 02:34:28;;;;;;;;;;;;;;;15.31;58.55;100405.16;5077392;28;1981;-47
2023/07/06 02:36:54;;;;;;;;;;;;;;;15.32;58.14;100409.50;5073489;28;1475;-48
2023/07/06 02:39:23;;;;;;;;;;;;;;;15.25;58.11;100406.22;5049872;28;894;-48
2023/07/06 02:41:51;;;;;;;;;;;;;;;15.23;58.26;100406.50;5077232;28;1051;-46
2023/07/06 02:44:19;;;;;;;;;;;;;;;15.19;58.21;100411.72;5077218;28;920;-47
2023/07/06 02:46:46;;;;;;;;;;;;;;;15.19;58.01;100408.13;5077188;28;1102;-49
2023/07/06 02:49:12;;;;;;;;;;;;;;;15.14;58.28;100416.38;5076383;28;1335;-49
2023/07/06 02:51:38;;;;;;;;;;;;;;;15.08;58.15;100422.91;5076655;28;1055;-47
2023/07/06 02:54:04;;;;;;;;;;;;;;;15.08;58.17;100422.91;5076614;28;1913;-48
2023/07/06 02:56:30;;;;;;;;;;;;;;;15.33;58.79;100431.19;5077079;28;1126;-49
2023/07/06 02:58:55;;;;;;;;;;;;;;;16.75;59.04;100427.53;5074662;28;1127;-49
2023/07/06 03:01:21;;;;;;;;;;;;;;;16.01;60.18;100427.28;5058511;28;1329;-45
2023/07/06 03:03:47;;;;;;;;;;;;;;;15.70;59.94;100429.25;5076837;28;1269;-47
2023/07/06 03:06:12;;;;;;;;;;;;;;;15.56;59.87;100438.00;5076805;28;1226;-48
2023/07/06 03:08:38;;;;;;;;;;;;;;;15.54;59.48;100442.94;5058662;28;1327;-44
2023/07/06 03:11:04;;;;;;;;;;;;;;;15.45;59.31;100446.50;5076647;28;1164;-49
2023/07/06 03:13:31;;;;;;;;;;;;;;;15.44;58.81;100436.66;5075769;28;1909;-46
2023/07/06 03:15:56;;;;;;;;;;;;;;;15.39;58.80;100442.97;5076639;28;1094;-50
2023/07/06 03:18:26;;;;;;;;;;;;;;;15.32;58.65;100450.59;5058360;28;1152;-47
2023/07/06 03:20:51;;;;;;;;;;;;;;;15.33;58.55;100449.50;5076413;28;1027;-49
2023/07/06 03:23:18;;;;;;;;;;;;;;;15.31;58.58;100440.75;5076861;28;1118;-47
2023/07/06 03:25:43;;;;;;;;;;;;;;;15.24;58.42;100435.53;5064145;28;1050;-46
2023/07/06 03:28:09;;;;;;;;;;;;;;;15.26;58.51;100446.22;5058118;28;1521;-50
2023/07/06 03:30:35;;;;;;;;;;;;;;;15.24;58.16;100449.25;5076374;28;1063;-48
2023/07/06 03:33:00;;;;;;;;;;;;;;;15.20;58.24;100442.66;5075674;28;1984;-46
2023/07/06 03:35:26;;;;;;;;;;;;;;;15.17;58.27;100451.44;5076267;28;1149;-51
2023/07/06 03:37:53;;;;;;;;;;;;;;;15.18;58.11;100442.09;5076137;28;1162;-49
2023/07/06 03:40:18;;;;;;;;;;;;;;;15.13;58.31;100442.91;5076954;28;1161;-47
2023/07/06 03:42:44;;;;;;;;;;;;;;;15.42;58.60;100444.31;5076017;28;1327;-49
2023/07/06 03:45:10;;;;;;;;;;;;;;;16.83;59.02;100439.00;5076545;28;1031;-51
2023/07/06 03:47:37;;;;;;;;;;;;;;;16.33;60.09;100441.75;5058108;28;1230;-46
2023/07/06 03:50:04;;;;;;;;;;;;;;;15.92;60.34;100448.13;5075905;28;1055;-50
2023/07/06 03:52:29;;;;;;;;;;;;;;;15.75;59.89;100437.44;5061486;28;1971;-49
2023/07/06 03:54:55;;;;;;;;;;;;;;;15.64;59.60;100436.66;5061721;28;1744;-48
2023/07/06 03:57:21;;;;;;;;;;;;;;;15.60;59.23;100434.72;5066395;28;1114;-47
2023/07/06 03:59:46;;;;;;;;;;;;;;;15.50;58.88;100433.63;5073843;28;979;-44
2023/07/06 04:02:12;;;;;;;;;;;;;;;15.50;58.88;100433.63;5075943;28;972;-49
2023/07/06 04:04:37;;;;;;;;;;;;;;;15.45;58.83;100427.34;5076015;28;1027;-49
2023/07/06 04:07:04;;;;;;;;;;;;;;;15.43;58.53;100435.00;5075713;28;1135;-50
2023/07/06 04:09:29;;;;;;;;;;;;;;;15.40;58.71;100441.84;5076197;28;1237;-52
2023/07/06 04:11:55;;;;;;;;;;;;;;;15.35;58.37;100439.94;5076067;28;1055;-47
2023/07/06 04:14:24;;;;;;;;;;;;;;;15.33;58.35;100442.13;5075399;28;1894;-47
2023/07/06 04:16:54;;;;;;;;;;;;;;;15.26;58.51;100441.56;5062260;28;1230;-51
2023/07/06 04:19:20;;;;;;;;;;;;;;;15.30;58.22;100441.84;5076129;28;1019;-50
2023/07/06 04:21:45;;;;;;;;;;;;;;;15.22;58.38;100444.03;5075432;28;1066;-48
2023/07/06 04:24:11;;;;;;;;;;;;;;;15.24;58.27;100454.72;5075664;28;1126;-47
2023/07/06 04:26:36;;;;;;;;;;;;;;;15.24;58.35;100454.72;5069702;28;1131;-50
2023/07/06 04:29:02;;;;;;;;;;;;;;;15.21;58.45;100447.06;5061408;28;1074;-46
2023/07/06 04:31:27;;;;;;;;;;;;;;;15.13;58.41;100447.59;5079678;28;954;-50
2023/07/06 04:33:54;;;;;;;;;;;;;;;15.12;58.12;100445.94;5079010;28;1959;-47
2023/07/06 04:36:19;;;;;;;;;;;;;;;15.18;58.17;100455.78;5078973;28;1401;-47
2023/07/06 04:38:45;;;;;;;;;;;;;;;15.74;58.92;100455.81;5079457;28;977;-43
2023/07/06 04:41:12;;;;;;;;;;;;;;;16.51;59.29;100457.56;5079659;28;1201;-46
2023/07/06 04:43:37;;;;;;;;;;;;;;;15.88;60.03;100453.38;5079054;28;1095;-45
2023/07/06 04:46:03;;;;;;;;;;;;;;;15.68;59.73;100465.16;5079268;28;1123;-50
2023/07/06 04:48:29;;;;;;;;;;;;;;;15.59;59.57;100460.50;5077789;28;1154;-60
2023/07/06 04:50:55;;;;;;;;;;;;;;;15.53;59.21;100457.75;5078738;28;877;-59
2023/07/06 04:53:21;;;;;;;;;;;;;;;16.60;59.40;100463.28;5067547;28;1974;-63
2023/07/06 04:55:46;;;;;;;;;;;;;;;15.91;58.41;100473.94;5059664;28;1158;-61
2023/07/06 04:58:12;;;;;;;;;;;;;;;15.77;56.17;100472.78;5060184;28;1353;-61
2023/07/06 05:00:39;;;;;;;;;;;;;;;15.57;54.99;100468.97;5074520;28;1234;-64
2023/07/06 05:03:08;;;;;;;;;;;;;;;15.64;53.72;100480.50;5077697;28;1229;-62
2023/07/06 05:05:36;;;;;;;;;;;;;;;15.49;53.20;100477.75;5078656;28;1038;-63
2023/07/06 05:08:02;;;;;;;;;;;;;;;15.50;52.53;100461.03;5072065;28;1125;-60
2023/07/06 05:10:28;;;;;;;;;;;;;;;15.47;52.44;100479.94;5078920;28;1173;-62
2023/07/06 05:12:55;;;;;;;;;;;;;;;15.50;51.77;100466.53;5073150;28;1914;-62
2023/07/06 05:15:21;;;;;;;;;;;;;;;15.55;51.59;100458.28;5068218;28;858;-60
2023/07/06 05:17:46;;;;;;;;;;;;;;;15.48;51.33;100459.66;5074172;28;1315;-62
2023/07/06 05:20:15;;;;;;;;;;;;;;;15.54;50.97;100458.56;5078764;28;1125;-63
2023/07/06 05:22:47;;;;;;;;;;;;;;;15.49;51.15;100456.66;5076316;28;1058;-61
2023/07/06 05:25:12;;;;;;;;;;;;;;;15.55;50.48;100452.00;5085223;28;1041;-61
2023/07/06 05:27:38;;;;;;;;;;;;;;;15.59;50.41;100455.81;5059987;28;1008;-65
2023/07/06 05:30:04;;;;;;;;;;;;;;;15.54;50.35;100453.06;5078850;28;991;-62
2023/07/06 05:32:29;;;;;;;;;;;;;;;15.62;50.12;100454.47;5076429;28;1155;-63
2023/07/06 05:34:55;;;;;;;;;;;;;;;15.54;50.42;100464.03;5078218;28;1906;-61
2023/07/06 05:37:20;;;;;;;;;;;;;;;15.62;50.20;100459.94;5077974;28;1089;-61
2023/07/06 05:39:46;;;;;;;;;;;;;;;15.69;49.93;100461.28;5078062;28;1043;-65
2023/07/06 05:42:13;;;;;;;;;;;;;;;15.66;49.88;100466.53;5077824;28;1034;-61
2023/07/06 05:44:38;;;;;;;;;;;;;;;15.58;50.04;100462.41;5078606;28;1213;-59
2023/07/06 05:47:04;;;;;;;;;;;;;;;15.56;50.15;100464.59;5078083;28;1040;-63
2023/07/06 05:49:30;;;;;;;;;;;;;;;15.62;49.96;100466.22;5077602;28;1038;-60
2023/07/06 05:51:55;;;;;;;;;;;;;;;15.60;50.10;100459.38;5078598;28;1019;-62
2023/07/06 05:54:21;;;;;;;;;;;;;;;15.66;49.86;100456.38;5078047;28;1981;-60
2023/07/06 05:56:48;;;;;;;;;;;;;;;15.71;49.70;100464.59;5077643;28;1069;-60
2023/07/06 05:59:15;;;;;;;;;;;;;;;15.67;49.81;100466.25;5077742;28;1217;-60
2023/07/06 06:01:40;;;;;;;;;;;;;;;15.64;49.79;100465.94;5075294;28;1378;-60
2023/07/06 06:04:06;;;;;;;;;;;;;;;15.79;49.58;100455.00;5078021;28;1109;-61
2023/07/06 06:06:46;;;;;;;;;;;;;;;15.78;49.55;100461.56;5077522;28;1174;-62
2023/07/06 06:09:12;;;;;;;;;;;;;;;15.64;49.88;100447.59;5077691;28;1225;-59
2023/07/06 06:11:38;;;;;;;;;;;;;;;15.69;49.72;100450.31;5077663;28;1090;-60
2023/07/06 06:14:03;;;;;;;;;;;;;;;15.71;49.84;100450.88;5077315;28;1996;-63
2023/07/06 06:16:29;;;;;;;;;;;;;;;15.71;49.58;100455.53;5078263;28;1261;-60
2023/07/06 06:18:57;;;;;;;;;;;;;;;15.74;49.37;100450.34;5077834;28;1113;-60
2023/07/06 06:21:22;;;;;;;;;;;;;;;15.78;49.75;100447.88;5077220;28;1313;-61
2023/07/06 06:23:48;;;;;;;;;;;;;;;15.79;49.41;100446.78;5077600;28;1086;-60
2023/07/06 06:26:15;;;;;;;;;;;;;;;15.79;49.32;100448.69;5077281;28;1364;-60
2023/07/06 06:28:41;;;;;;;;;;;;;;;15.80;49.46;100440.22;5077981;28;1066;-61
2023/07/06 06:31:08;;;;;;;;;;;;;;;15.80;49.38;100439.41;5077035;28;1097;-59
2023/07/06 06:33:33;;;;;;;;;;;;;;;15.80;49.45;100448.44;5077439;28;1910;-60
2023/07/06 06:36:00;;;;;;;;;;;;;;;15.83;49.55;100449.81;5076955;28;1119;-61
2023/07/06 06:38:25;;;;;;;;;;;;;;;15.86;49.41;100439.09;5076542;28;1234;-59
2023/07/06 06:40:51;;;;;;;;;;;;;;;15.85;49.53;100437.47;5077310;28;1113;-60
2023/07/06 06:43:17;;;;;;;;;;;;;;;15.76;49.72;100443.75;5077126;28;1157;-60
2023/07/06 06:45:42;;;;;;;;;;;;;;;15.84;49.47;100445.97;5076689;28;1270;-58
2023/07/06 06:48:08;;;;;;;;;;;;;;;15.80;49.69;100439.41;5076521;28;1287;-57
2023/07/06 06:50:33;;;;;;;;;;;;;;;15.89;49.47;100437.72;5076981;28;1109;-58
2023/07/06 06:52:59;;;;;;;;;;;;;;;15.89;49.57;100432.25;5076946;28;1914;-62
2023/07/06 06:55:25;;;;;;;;;;;;;;;15.88;49.59;100444.31;5076792;28;1190;-58
2023/07/06 06:57:52;;;;;;;;;;;;;;;15.89;49.70;100434.97;5077040;28;1127;-58
2023/07/06 07:00:18;;;;;;;;;;;;;;;15.87;49.56;100434.44;5076722;28;1149;-58
2023/07/06 07:02:43;;;;;;;;;;;;;;;15.92;49.58;100437.16;5058891;28;1090;-58
2023/07/06 07:05:09;;;;;;;;;;;;;;;15.91;49.41;100435.53;5076843;28;1022;-58
2023/07/06 07:07:37;;;;;;;;;;;;;;;16.05;49.39;100441.28;5076520;28;1115;-59
2023/07/06 07:10:04;;;;;;;;;;;;;;;15.89;49.41;100437.72;5075320;28;1174;-59
2023/07/06 07:12:30;;;;;;;;;;;;;;;15.98;49.45;100429.78;5075982;28;1317;-60
2023/07/06 07:14:56;;;;;;;;;;;;;;;15.94;49.33;100428.69;5075754;28;1905;-59
2023/07/06 07:17:21;;;;;;;;;;;;;;;15.97;49.50;100419.91;5076132;28;1249;-62
2023/07/06 07:19:47;;;;;;;;;;;;;;;16.01;49.34;100430.03;5076330;28;1289;-62
2023/07/06 07:22:13;;;;;;;;;;;;;;;16.06;49.28;100430.00;5076153;28;1210;-59
2023/07/06 07:24:39;;;;;;;;;;;;;;;15.94;49.57;100413.03;5073684;28;1063;-60
2023/07/06 07:27:04;;;;;;;;;;;;;;;16.02;49.20;100419.84;5056004;28;1420;-60
2023/07/06 07:29:30;;;;;;;;;;;;;;;16.00;49.68;100422.88;5056436;28;1262;-60
2023/07/06 07:31:56;;;;;;;;;;;;;;;16.07;49.33;100415.22;5056128;28;1246;-59
2023/07/06 07:34:21;;;;;;;;;;;;;;;16.07;49.36;100411.63;5056068;28;1906;-58
2023/07/06 07:36:47;;;;;;;;;;;;;;;16.09;49.42;100417.66;5056427;28;1297;-60
2023/07/06 07:39:14;;;;;;;;;;;;;;;16.10;49.30;100418.47;5055984;28;1238;-60
2023/07/06 07:41:42;;;;;;;;;;;;;;;16.03;49.44;100405.91;5056174;28;1214;-58
2023/07/06 07:44:09;;;;;;;;;;;;;;;16.10;49.19;100415.75;5055697;28;1234;-60
2023/07/06 07:46:35;;;;;;;;;;;;;;;16.10;49.33;100418.47;5056031;28;1167;-60
2023/07/06 07:49:01;;;;;;;;;;;;;;;16.11;49.34;100411.91;5055903;28;1230;-60
2023/07/06 07:51:27;;;;;;;;;;;;;;;16.13;49.38;100409.69;5055948;28;1316;-59
2023/07/06 07:53:53;;;;;;;;;;;;;;;16.04;49.64;100413.00;5055862;28;1914;-59
2023/07/06 07:56:18;;;;;;;;;;;;;;;16.06;49.48;100413.56;5056010;28;1250;-60
2023/07/06 07:58:48;;;;;;;;;;;;;;;16.03;49.43;100405.91;5073833;28;1207;-60
2023/07/06 08:01:15;;;;;;;;;;;;;;;16.14;49.12;100409.41;5076780;28;1296;-62
2023/07/06 08:03:41;;;;;;;;;;;;;;;16.16;49.21;100400.88;5079742;28;1174;-60
2023/07/06 08:06:07;;;;;;;;;;;;;;;16.19;49.28;100403.09;5080319;28;1233;-61
2023/07/06 08:08:33;;;;;;;;;;;;;;;16.14;49.48;100408.59;5080075;28;1284;-61
2023/07/06 08:11:03;;;;;;;;;;;;;;;16.15;49.42;100400.09;5080225;28;1146;-61
2023/07/06 08:13:29;;;;;;;;;;;;;;;16.16;49.31;100406.38;5080762;28;1972;-60
2023/07/06 08:15:55;;;;;;;;;;;;;;;16.19;49.62;100398.44;5079978;28;1218;-58
2023/07/06 08:18:21;;;;;;;;;;;;;;;16.13;49.34;100412.44;5080027;28;1180;-59
2023/07/06 08:20:53;;;;;;;;;;;;;;;16.34;49.05;100405.78;5080041;28;1162;-60
2023/07/06 08:23:20;;;;;;;;;;;;;;;16.33;49.24;100403.31;5080091;28;1403;-59
2023/07/06 08:25:45;;;;;;;;;;;;;;;16.18;49.61;100398.72;5080013;28;1221;-60
2023/07/06 08:28:14;;;;;;;;;;;;;;;16.28;49.24;100401.41;5079324;28;907;-58
2023/07/06 08:30:41;;;;;;;;;;;;;;;16.35;49.26;100403.84;5079862;28;1206;-59
2023/07/06 08:33:09;;;;;;;;;;;;;;;16.26;49.24;100395.38;5079240;28;1972;-60
2023/07/06 08:35:35;;;;;;;;;;;;;;;16.29;49.20;100402.25;5079167;28;1117;-57
2023/07/06 08:38:04;;;;;;;;;;;;;;;16.30;49.05;100390.97;5061422;28;1270;-56
2023/07/06 08:40:30;;;;;;;;;;;;;;;16.30;48.95;100390.16;5079107;28;1150;-57
2023/07/06 08:42:56;;;;;;;;;;;;;;;16.28;49.08;100390.44;5061518;28;1254;-56
2023/07/06 08:45:36;;;;;;;;;;;;;;;16.37;48.89;100402.47;5079276;28;1329;-55
2023/07/06 08:48:02;;;;;;;;;;;;;;;16.32;49.27;100397.00;5079306;28;1371;-56
2023/07/06 08:50:28;;;;;;;;;;;;;;;16.30;49.09;100395.63;5079637;28;1158;-56
2023/07/06 08:52:55;;;;;;;;;;;;;;;16.31;49.40;100395.34;5060942;28;1988;-56
2023/07/06 08:55:22;;;;;;;;;;;;;;;16.41;49.13;100389.00;5061713;28;1047;-58
2023/07/06 08:57:49;;;;;;;;;;;;;;;16.41;48.98;100389.81;5061662;28;1019;-58
2023/07/06 09:00:25;;;;;;;;;;;;;;;16.33;49.10;100393.16;5078917;28;1046;-57
2023/07/06 09:02:53;;;;;;;;;;;;;;;16.40;49.01;100388.19;5079126;28;1185;-56
2023/07/06 09:05:20;;;;;;;;;;;;;;;16.39;49.01;100392.03;5061105;28;1004;-56
2023/07/06 09:07:45;;;;;;;;;;;;;;;16.48;49.09;100399.66;5060879;28;1117;-58
2023/07/06 09:10:14;;;;;;;;;;;;;;;16.36;49.46;100406.31;5078809;28;1047;-57
2023/07/06 09:12:39;;;;;;;;;;;;;;;16.43;49.16;100404.06;5078131;28;1917;-57
2023/07/06 09:15:08;;;;;;;;;;;;;;;16.50;49.06;100397.47;5079082;28;1035;-56
2023/07/06 09:17:34;;;;;;;;;;;;;;;16.41;49.38;100400.81;5078793;28;1169;-56
2023/07/06 09:20:01;;;;;;;;;;;;;;;16.38;49.24;100384.91;5078818;28;947;-58
2023/07/06 09:22:27;;;;;;;;;;;;;;;16.45;49.29;100400.25;5078489;28;1085;-57
2023/07/06 09:24:53;;;;;;;;;;;;;;;16.46;49.51;100390.91;5078889;28;992;-56
2023/07/06 09:27:23;;;;;;;;;;;;;;;16.45;49.25;100395.56;5060190;28;1249;-56
2023/07/06 09:30:00;;;;;;;;;;;;;;;16.40;49.42;100387.38;5066053;28;1191;-56
2023/07/06 09:32:27;;;;;;;;;;;;;;;16.46;49.17;100394.47;5078660;28;1070;-57
2023/07/06 09:34:56;;;;;;;;;;;;;;;16.50;49.33;100387.31;5078131;28;1902;-57
2023/07/06 09:37:22;;;;;;;;;;;;;;;16.56;49.25;100390.84;5060331;28;1127;-56
2023/07/06 09:40:17;;;;;;;;;;;;;;;16.49;49.39;100387.59;5078040;28;1134;-56
2023/07/06 09:42:44;;;;;;;;;;;;;;;16.57;49.36;100378.78;5060847;28;1233;-56
2023/07/06 09:45:19;;;;;;;;;;;;;;;16.53;49.37;100380.44;5078555;28;1210;-56
2023/07/06 09:47:46;;;;;;;;;;;;;;;16.56;49.19;100385.34;5060554;28;1023;-57
2023/07/06 09:50:14;;;;;;;;;;;;;;;16.57;49.14;100384.25;5060362;28;1234;-55
2023/07/06 09:52:40;;;;;;;;;;;;;;;16.65;48.94;100380.94;5057162;28;935;-56
2023/07/06 09:55:23;;;;;;;;;;;;;;;16.63;48.85;100374.88;5049581;28;1249;-56
2023/07/06 09:57:49;;;;;;;;;;;;;;;16.55;49.17;100365.34;5069707;28;1115;-57
2023/07/06 10:00:17;;;;;;;;;;;;;;;16.63;49.21;100374.88;5077132;28;1047;-56
2023/07/06 10:02:51;;;;;;;;;;;;;;;16.67;49.29;100375.16;5076785;28;1403;-56
2023/07/06 10:05:25;;;;;;;;;;;;;;;16.74;49.51;100365.47;5077549;28;1198;-59
2023/07/06 10:08:05;;;;;;;;;;;;;;;16.68;49.74;100374.84;5059885;28;1075;-56
2023/07/06 10:10:42;;;;;;;;;;;;;;;16.74;49.54;100379.19;5077974;28;1506;-57
2023/07/06 10:13:11;;;;;;;;;;;;;;;16.71;49.27;100374.28;5076920;28;2326;-55
2023/07/06 10:15:38;;;;;;;;;;;;;;;16.67;49.51;100364.97;5077235;28;1129;-57
2023/07/06 10:18:04;;;;;;;;;;;;;;;16.70;49.21;100366.34;5059857;28;1055;-55
2023/07/06 10:20:36;;;;;;;;;;;;;;;16.73;49.07;100363.00;5077355;28;1074;-56
2023/07/06 10:23:16;;;;;;;;;;;;;;;16.77;49.25;100353.94;5077388;28;1134;-55
2023/07/06 10:25:42;;;;;;;;;;;;;;;16.80;49.20;100357.22;5059839;28;1221;-56
2023/07/06 10:28:18;;;;;;;;;;;;;;;16.78;49.15;100354.75;5077155;28;1218;-58
2023/07/06 10:30:45;;;;;;;;;;;;;;;16.82;49.42;100344.03;5077509;28;1113;-60
2023/07/06 10:33:13;;;;;;;;;;;;;;;16.83;49.49;100351.97;5059097;28;1977;-60
2023/07/06 10:35:50;;;;;;;;;;;;;;;16.79;49.63;100352.81;5077023;28;1202;-58
2023/07/06 10:38:16;;;;;;;;;;;;;;;16.80;49.50;100347.03;5060592;28;1485;-58
2023/07/06 10:40:42;;;;;;;;;;;;;;;16.89;49.31;100350.06;5059534;28;1142;-59
2023/07/06 10:43:14;;;;;;;;;;;;;;;16.86;49.44;100347.84;5076468;28;1059;-58
2023/07/06 10:45:52;;;;;;;;;;;;;;;16.88;49.22;100342.88;5076152;28;1070;-59
2023/07/06 10:48:21;;;;;;;;;;;;;;;16.81;49.50;100337.69;5076440;28;1214;-59
2023/07/06 10:50:51;;;;;;;;;;;;;;;16.88;49.47;100331.91;5077167;28;1066;-58
2023/07/06 10:53:18;;;;;;;;;;;;;;;16.88;49.46;100335.47;5077053;28;1905;-58
2023/07/06 10:55:54;;;;;;;;;;;;;;;16.91;49.33;100339.59;5076882;28;1225;-59
2023/07/06 10:58:29;;;;;;;;;;;;;;;16.84;49.42;100331.63;5076788;28;1186;-59
2023/07/06 11:00:58;;;;;;;;;;;;;;;16.95;49.60;100326.91;5058988;28;1134;-59
2023/07/06 11:03:27;;;;;;;;;;;;;;;16.92;49.72;100324.75;5058477;28;1147;-57
2023/07/06 11:06:06;;;;;;;;;;;;;;;16.95;49.31;100324.16;5075482;28;1139;-57
2023/07/06 11:08:51;;;;;;;;;;;;;;;16.91;49.33;100321.19;5076490;28;1318;-58
2023/07/06 11:11:17;;;;;;;;;;;;;;;16.95;49.32;100324.16;5076693;28;1205;-59
2023/07/06 11:13:51;;;;;;;;;;;;;;;16.96;49.22;100312.09;5075892;28;1898;-59
2023/07/06 11:16:27;;;;;;;;;;;;;;;16.90;49.09;100315.97;5076063;28;1214;-57
2023/07/06 11:18:53;;;;;;;;;;;;;;;16.91;49.23;100314.88;5058519;28;1380;-59
2023/07/06 11:21:25;;;;;;;;;;;;;;;17.03;48.94;100301.59;5058675;28;1107;-59
2023/07/06 11:23:52;;;;;;;;;;;;;;;16.95;49.34;100304.94;5075507;28;1262;-59
2023/07/06 11:26:25;;;;;;;;;;;;;;;16.92;49.06;100308.28;5058483;28;1329;-58
2023/07/06 11:28:53;;;;;;;;;;;;;;;17.01;49.02;100308.47;5075808;28;1237;-57
2023/07/06 11:31:37;;;;;;;;;;;;;;;17.06;49.08;100308.44;5075586;28;1046;-57
2023/07/06 11:34:19;;;;;;;;;;;;;;;16.91;49.49;100298.38;5076458;28;1910;-56
2023/07/06 11:36:57;;;;;;;;;;;;;;;17.01;48.95;100292.81;5058422;28;1073;-58
2023/07/06 11:39:26;;;;;;;;;;;;;;;17.01;49.07;100303.81;5076268;28;1046;-58
2023/07/06 11:41:57;;;;;;;;;;;;;;;17.07;48.90;100294.41;5076265;28;1142;-55
2023/07/06 11:44:39;;;;;;;;;;;;;;;17.07;48.87;100288.91;5076012;28;1244;-57
2023/07/06 11:47:07;;;;;;;;;;;;;;;17.09;48.96;100286.69;5076290;28;1066;-50
2023/07/06 11:49:51;;;;;;;;;;;;;;;17.04;49.21;100286.75;5075727;28;1035;-56
2023/07/06 11:52:19;;;;;;;;;;;;;;;17.04;49.41;100274.94;5075384;28;1074;-53
2023/07/06 11:54:51;;;;;;;;;;;;;;;17.09;49.36;100272.94;5065447;28;1902;-56
2023/07/06 11:57:31;;;;;;;;;;;;;;;17.10;49.14;100280.09;5058622;28;1071;-56
2023/07/06 12:03:00;;;;;;;;;;;;;;;17.16;48.93;100271.81;5076518;28;969;-58
2023/07/06 12:05:26;;;;;;;;;;;;;;;17.10;49.18;100274.59;5075855;28;1178;-58
2023/07/06 12:08:01;;;;;;;;;;;;;;;17.08;49.08;100270.50;5075466;28;1048;-58
2023/07/06 12:10:28;;;;;;;;;;;;;;;17.12;49.02;100271.56;5072639;28;1210;-58
2023/07/06 12:12:55;;;;;;;;;;;;;;;17.12;49.31;100265.25;5075574;28;1921;-57
2023/07/06 12:15:22;;;;;;;;;;;;;;;17.04;49.34;100267.53;5075759;28;1230;-57
2023/07/06 12:17:50;;;;;;;;;;;;;;;17.15;49.15;100259.16;5057807;28;1214;-59
2023/07/06 12:20:16;;;;;;;;;;;;;;;17.16;49.16;100261.63;5057426;28;1274;-60
2023/07/06 12:22:51;;;;;;;;;;;;;;;17.14;49.14;100254.78;5075860;28;1102;-58
2023/07/06 12:25:18;;;;;;;;;;;;;;;17.15;49.21;100253.69;5075602;28;1094;-57
2023/07/06 12:27:43;;;;;;;;;;;;;;;17.09;49.30;100253.72;5075796;28;1202;-57
2023/07/06 12:30:11;;;;;;;;;;;;;;;17.14;49.20;100252.88;5075265;28;1249;-59
2023/07/06 12:32:37;;;;;;;;;;;;;;;17.16;49.14;100252.56;5057899;28;1040;-62
2023/07/06 12:35:04;;;;;;;;;;;;;;;17.08;49.39;100259.50;5075510;28;1988;-62
2023/07/06 12:37:30;;;;;;;;;;;;;;;17.14;49.28;100249.28;5058560;28;1159;-62
2023/07/06 12:39:55;;;;;;;;;;;;;;;17.22;49.03;100248.66;5075118;28;1046;-59
2023/07/06 12:42:21;;;;;;;;;;;;;;;17.21;49.04;100249.78;5057591;28;890;-58
2023/07/06 12:44:50;;;;;;;;;;;;;;;17.29;48.75;100251.88;5058033;28;1432;-61
2023/07/06 12:47:20;;;;;;;;;;;;;;;17.20;49.08;100245.41;5059196;28;1123;-60
2023/07/06 12:49:47;;;;;;;;;;;;;;;17.22;49.14;100243.16;5078360;28;1137;-57
2023/07/06 12:52:12;;;;;;;;;;;;;;;17.30;49.09;100248.03;5079139;28;1058;-57
2023/07/06 12:54:46;;;;;;;;;;;;;;;17.20;49.15;100245.41;5078603;28;1979;-55